Hunt Field
KLND : now visible

Airfield :











YOU CAN JOIN US ON...

 
LOGIN :

Register | Disclaimer

   EN    FR    IT 

 









Legend :    VFR   Marginal VFR   IFR   Intensive IFR   Very Intensive IFR
Visi :
Ceiling :
>= 8 km
>= 3000ft
5 to 8 km
1000 to 3000 ft
1500m to 5 km
500 to 1000 ft
800 to 1500m
200 to 500 ft
< 800m
< 200 ft
Symbols :   Thunderstorms  Fog  Heavy snow  Heavy precipitations  Wind > 20 kt






- Airport Elevation : 5586 ft


KLND - Hunt Field

CURRENT METAR :
  • 280653Z AUTO 36004KT 10SM CLR M06/M13 A3012 RMK AO2 SLP234 T10561128 400111078

EXPIRED METARs :
  • 280553Z AUTO 22010KT 10SM CLR M03/M12 A3012 RMK AO2 SLP227 T10281117 11006 21061 53001
  • 280453Z AUTO VRB05KT 10SM CLR M03/M11 A3011 RMK AO2 SLP226 T10331111
  • 280353Z AUTO 25009KT 10SM CLR M02/M09 A3011 RMK AO2 SLP228 T10221094

TAF KLND
Valid from the 28 at 06:00 until the 29 at 06:00 UTC


280527Z 2806/2906 VRB05KT P6SM SKC
FM281400 VRB05KT P6SM FEW120 BKN200
FM290000 VRB05KT P6SM BKN100



MET'MAP, your aeronautical weather chart ! - Copyright ORBIFLY December 2007 - Disclaimer

ORBIFLY MET'MAP TEAM :

Programming & Development : Alexandra Zaïnal
Concept & original design : Baudouin d'Aumeries
Assistance for programming : Marc-Olivier Méhu
Technical & hardware support : Manuel Goepfert

Contact : metmap@orbifly.com




SOURCES & CREDITS :

   NOAA       Earth
Advisory